sensor_id;sensor_type;location;lat;lon;timestamp;pressure;altitude;pressure_sealevel;temperature;humidity
28310;BME280;15571;50.974;13.936;2023-04-30T00:44:07;100434.75;;;11.64;100.00
28310;BME280;15571;50.974;13.936;2023-04-30T00:47:10;100434.75;;;11.64;100.00
28310;BME280;15571;50.974;13.936;2023-04-30T00:50:13;100439.09;;;11.64;100.00
28310;BME280;15571;50.974;13.936;2023-04-30T00:53:21;100440.84;;;11.63;100.00
28310;BME280;15571;50.974;13.936;2023-04-30T00:56:27;100439.13;;;11.62;100.00
28310;BME280;15571;50.974;13.936;2023-04-30T00:59:32;100442.59;;;11.61;100.00
28310;BME280;15571;50.974;13.936;2023-04-30T01:02:36;100445.22;;;11.61;100.00
28310;BME280;15571;50.974;13.936;2023-04-30T01:05:42;100450.47;;;11.61;100.00
28310;BME280;15571;50.974;13.936;2023-04-30T01:08:48;100445.22;;;11.61;100.00
28310;BME280;15571;50.974;13.936;2023-04-30T01:11:59;100457.47;;;11.59;100.00
28310;BME280;15571;50.974;13.936;2023-04-30T01:15:07;100451.38;;;11.59;100.00
28310;BME280;15571;50.974;13.936;2023-04-30T01:18:16;100453.97;;;11.57;100.00
28310;BME280;15571;50.974;13.936;2023-04-30T01:21:25;100463.63;;;11.57;100.00
28310;BME280;15571;50.974;13.936;2023-04-30T01:24:42;100460.13;;;11.55;100.00
28310;BME280;15571;50.974;13.936;2023-04-30T01:28:02;100461.88;;;11.52;100.00
28310;BME280;15571;50.974;13.936;2023-04-30T01:31:11;100471.50;;;11.49;100.00
28310;BME280;15571;50.974;13.936;2023-04-30T01:34:17;100466.31;;;11.46;100.00
28310;BME280;15571;50.974;13.936;2023-04-30T01:37:21;100482.03;;;11.43;100.00
28310;BME280;15571;50.974;13.936;2023-04-30T01:40:32;100473.31;;;11.37;100.00
28310;BME280;15571;50.974;13.936;2023-04-30T01:43:44;100479.47;;;11.30;100.00
28310;BME280;15571;50.974;13.936;2023-04-30T01:46:54;100480.38;;;11.25;100.00
28310;BME280;15571;50.974;13.936;2023-04-30T01:50:12;100484.72;;;11.23;100.00
28310;BME280;15571;50.974;13.936;2023-04-30T01:53:20;100493.47;;;11.20;100.00
28310;BME280;15571;50.974;13.936;2023-04-30T01:56:26;100501.34;;;11.17;100.00
28310;BME280;15571;50.974;13.936;2023-04-30T01:59:36;100506.63;;;11.14;100.00
28310;BME280;15571;50.974;13.936;2023-04-30T02:02:41;100513.59;;;11.12;100.00
28310;BME280;15571;50.974;13.936;2023-04-30T02:05:46;100521.50;;;11.01;100.00
28310;BME280;15571;50.974;13.936;2023-04-30T02:08:50;100527.59;;;11.01;100.00
28310;BME280;15571;50.974;13.936;2023-04-30T02:11:55;100539.84;;;10.93;100.00
28310;BME280;15571;50.974;13.936;2023-04-30T02:15:06;100542.47;;;10.90;100.00
28310;BME280;15571;50.974;13.936;2023-04-30T02:18:08;100547.75;;;10.82;100.00
28310;BME280;15571;50.974;13.936;2023-04-30T02:21:15;100549.47;;;10.79;100.00
28310;BME280;15571;50.974;13.936;2023-04-30T02:24:18;100548.59;;;10.73;100.00
28310;BME280;15571;50.974;13.936;2023-04-30T02:27:20;100551.25;;;10.72;100.00
28310;BME280;15571;50.974;13.936;2023-04-30T02:30:27;100559.94;;;10.74;100.00
28310;BME280;15571;50.974;13.936;2023-04-30T02:33:30;100565.16;;;10.74;100.00
28310;BME280;15571;50.974;13.936;2023-04-30T02:36:36;100565.19;;;10.76;100.00
28310;BME280;15571;50.974;13.936;2023-04-30T02:39:39;100568.66;;;10.78;100.00
28310;BME280;15571;50.974;13.936;2023-04-30T02:42:42;100569.56;;;10.77;100.00
28310;BME280;15571;50.974;13.936;2023-04-30T02:45:53;100573.03;;;10.74;100.00
28310;BME280;15571;50.974;13.936;2023-04-30T02:49:00;100574.78;;;10.73;100.00
28310;BME280;15571;50.974;13.936;2023-04-30T02:52:06;100587.00;;;10.74;100.00
28310;BME280;15571;50.974;13.936;2023-04-30T02:55:21;100577.41;;;10.75;100.00
28310;BME280;15571;50.974;13.936;2023-04-30T02:58:27;100575.66;;;10.74;100.00
28310;BME280;15571;50.974;13.936;2023-04-30T03:01:34;100584.41;;;10.74;100.00
28310;BME280;15571;50.974;13.936;2023-04-30T03:04:41;100587.00;;;10.74;100.00
28310;BME280;15571;50.974;13.936;2023-04-30T03:07:54;100597.47;;;10.73;100.00
28310;BME280;15571;50.974;13.936;2023-04-30T03:11:01;100603.59;;;10.72;100.00
28310;BME280;15571;50.974;13.936;2023-04-30T03:14:11;100603.59;;;10.70;100.00
28310;BME280;15571;50.974;13.936;2023-04-30T03:17:22;100600.09;;;10.68;100.00
28310;BME280;15571;50.974;13.936;2023-04-30T03:20:26;100611.47;;;10.67;100.00
28310;BME280;15571;50.974;13.936;2023-04-30T03:23:31;100614.94;;;10.66;100.00
28310;BME280;15571;50.974;13.936;2023-04-30T03:26:35;100615.78;;;10.53;100.00
28310;BME280;15571;50.974;13.936;2023-04-30T03:29:38;100627.13;;;10.46;100.00
28310;BME280;15571;50.974;13.936;2023-04-30T03:32:44;100621.88;;;10.42;100.00
28310;BME280;15571;50.974;13.936;2023-04-30T03:35:49;100633.22;;;10.40;100.00
28310;BME280;15571;50.974;13.936;2023-04-30T03:38:53;100635.81;;;10.35;100.00
28310;BME280;15571;50.974;13.936;2023-04-30T03:42:00;100646.25;;;10.34;100.00
28310;BME280;15571;50.974;13.936;2023-04-30T03:45:06;100646.25;;;10.23;100.00
28310;BME280;15571;50.974;13.936;2023-04-30T03:48:11;100645.34;;;10.21;100.00
28310;BME280;15571;50.974;13.936;2023-04-30T03:51:17;100644.50;;;10.19;100.00
28310;BME280;15571;50.974;13.936;2023-04-30T03:54:28;100654.94;;;10.16;100.00
28310;BME280;15571;50.974;13.936;2023-04-30T03:57:38;100652.31;;;10.14;100.00
28310;BME280;15571;50.974;13.936;2023-04-30T04:00:49;100658.41;;;10.11;100.00
28310;BME280;15571;50.974;13.936;2023-04-30T04:03:59;100668.88;;;10.04;100.00
28310;BME280;15571;50.974;13.936;2023-04-30T04:07:11;100669.69;;;9.96;100.00
28310;BME280;15571;50.974;13.936;2023-04-30T04:10:18;100670.56;;;9.94;100.00
28310;BME280;15571;50.974;13.936;2023-04-30T04:13:25;100674.91;;;9.96;100.00
28310;BME280;15571;50.974;13.936;2023-04-30T04:16:28;100684.50;;;9.97;100.00
28310;BME280;15571;50.974;13.936;2023-04-30T04:19:36;100692.34;;;9.93;100.00
28310;BME280;15571;50.974;13.936;2023-04-30T04:22:38;100685.34;;;9.92;100.00
28310;BME280;15571;50.974;13.936;2023-04-30T04:25:41;100693.22;;;9.93;100.00
28310;BME280;15571;50.974;13.936;2023-04-30T04:28:46;100700.16;;;9.88;100.00
28310;BME280;15571;50.974;13.936;2023-04-30T04:31:50;100702.75;;;9.85;100.00
28310;BME280;15571;50.974;13.936;2023-04-30T04:34:56;100701.03;;;9.84;100.00
28310;BME280;15571;50.974;13.936;2023-04-30T04:37:59;100707.13;;;9.85;100.00
28310;BME280;15571;50.974;13.936;2023-04-30T04:41:03;100705.34;;;9.77;100.00
28310;BME280;15571;50.974;13.936;2023-04-30T04:44:10;100708.78;;;9.73;100.00
28310;BME280;15571;50.974;13.936;2023-04-30T04:47:16;100714.00;;;9.70;100.00
28310;BME280;15571;50.974;13.936;2023-04-30T04:50:24;100718.34;;;9.66;100.00
28310;BME280;15571;50.974;13.936;2023-04-30T04:53:27;100728.75;;;9.60;100.00
28310;BME280;15571;50.974;13.936;2023-04-30T04:56:35;100728.75;;;9.56;100.00
28310;BME280;15571;50.974;13.936;2023-04-30T04:59:43;100732.19;;;9.52;100.00
28310;BME280;15571;50.974;13.936;2023-04-30T05:02:47;100734.78;;;9.48;100.00
28310;BME280;15571;50.974;13.936;2023-04-30T05:05:57;100734.75;;;9.45;100.00
28310;BME280;15571;50.974;13.936;2023-04-30T05:09:11;100739.13;;;9.46;100.00
28310;BME280;15571;50.974;13.936;2023-04-30T05:12:16;100740.81;;;9.41;100.00
28310;BME280;15571;50.974;13.936;2023-04-30T05:15:20;100742.56;;;9.39;100.00
28310;BME280;15571;50.974;13.936;2023-04-30T05:18:29;100746.91;;;9.37;100.00
28310;BME280;15571;50.974;13.936;2023-04-30T05:21:35;100744.31;;;9.40;100.00
28310;BME280;15571;50.974;13.936;2023-04-30T05:24:42;100751.28;;;9.46;100.00
28310;BME280;15571;50.974;13.936;2023-04-30T05:27:47;100762.69;;;9.53;100.00
28310;BME280;15571;50.974;13.936;2023-04-30T05:30:59;100772.31;;;9.57;100.00
28310;BME280;15571;50.974;13.936;2023-04-30T05:34:02;100765.31;;;9.56;100.00
28310;BME280;15571;50.974;13.936;2023-04-30T05:37:13;100769.72;;;9.61;100.00
28310;BME280;15571;50.974;13.936;2023-04-30T05:40:17;100778.44;;;9.62;100.00
28310;BME280;15571;50.974;13.936;2023-04-30T05:43:24;100771.47;;;9.64;100.00
28310;BME280;15571;50.974;13.936;2023-04-30T05:46:30;100781.94;;;9.64;100.00
28310;BME280;15571;50.974;13.936;2023-04-30T05:49:41;100771.44;;;9.58;100.00
28310;BME280;15571;50.974;13.936;2023-04-30T05:52:49;100779.31;;;9.64;100.00
28310;BME280;15571;50.974;13.936;2023-04-30T05:55:59;100772.34;;;9.60;100.00
28310;BME280;15571;50.974;13.936;2023-04-30T05:59:07;100769.72;;;9.60;100.00
28310;BME280;15571;50.974;13.936;2023-04-30T06:02:14;100767.97;;;9.59;100.00
28310;BME280;15571;50.974;13.936;2023-04-30T06:05:16;100770.59;;;9.62;100.00
28310;BME280;15571;50.974;13.936;2023-04-30T06:08:25;100774.09;;;9.64;100.00
28310;BME280;15571;50.974;13.936;2023-04-30T06:11:31;100773.16;;;9.56;100.00
28310;BME280;15571;50.974;13.936;2023-04-30T06:14:40;100776.72;;;9.64;100.00
28310;BME280;15571;50.974;13.936;2023-04-30T06:17:52;100774.13;;;9.70;100.00
28310;BME280;15571;50.974;13.936;2023-04-30T06:20:57;100775.94;;;9.77;100.00
28310;BME280;15571;50.974;13.936;2023-04-30T06:24:08;100782.06;;;9.79;100.00
28310;BME280;15571;50.974;13.936;2023-04-30T06:27:11;100773.34;;;9.84;100.00
28310;BME280;15571;50.974;13.936;2023-04-30T06:30:19;100780.38;;;9.91;100.00
28310;BME280;15571;50.974;13.936;2023-04-30T06:33:28;100786.50;;;9.96;100.00
28310;BME280;15571;50.974;13.936;2023-04-30T06:36:44;100783.91;;;10.02;100.00
28310;BME280;15571;50.974;13.936;2023-04-30T06:39:52;100782.22;;;10.10;100.00
28310;BME280;15571;50.974;13.936;2023-04-30T06:42:58;100779.66;;;10.17;100.00
28310;BME280;15571;50.974;13.936;2023-04-30T06:46:02;100781.41;;;10.21;100.00
28310;BME280;15571;50.974;13.936;2023-04-30T06:49:10;100782.28;;;10.23;100.00
28310;BME280;15571;50.974;13.936;2023-04-30T06:52:14;100784.03;;;10.24;100.00
28310;BME280;15571;50.974;13.936;2023-04-30T06:55:21;100784.03;;;10.24;100.00
28310;BME280;15571;50.974;13.936;2023-04-30T06:58:29;100788.41;;;10.26;100.00
28310;BME280;15571;50.974;13.936;2023-04-30T07:01:34;100784.06;;;10.27;100.00
28310;BME280;15571;50.974;13.936;2023-04-30T07:04:44;100773.59;;;10.27;100.00
28310;BME280;15571;50.974;13.936;2023-04-30T07:07:48;100784.06;;;10.30;100.00
28310;BME280;15571;50.974;13.936;2023-04-30T07:10:59;100787.56;;;10.32;100.00
28310;BME280;15571;50.974;13.936;2023-04-30T07:14:04;100785.84;;;10.36;100.00
28310;BME280;15571;50.974;13.936;2023-04-30T07:17:15;100785.88;;;10.40;100.00
28310;BME280;15571;50.974;13.936;2023-04-30T07:20:19;100792.00;;;10.42;100.00
28310;BME280;15571;50.974;13.936;2023-04-30T07:23:22;100789.41;;;10.46;100.00
28310;BME280;15571;50.974;13.936;2023-04-30T07:26:27;100787.66;;;10.51;100.00
28310;BME280;15571;50.974;13.936;2023-04-30T07:29:32;100795.53;;;10.55;100.00
28310;BME280;15571;50.974;13.936;2023-04-30T07:32:41;100790.31;;;10.60;100.00
28310;BME280;15571;50.974;13.936;2023-04-30T07:35:45;100783.34;;;10.62;100.00
28310;BME280;15571;50.974;13.936;2023-04-30T07:38:54;100782.50;;;10.66;100.00
28310;BME280;15571;50.974;13.936;2023-04-30T07:42:05;100791.25;;;10.71;100.00
28310;BME280;15571;50.974;13.936;2023-04-30T07:45:16;100798.22;;;10.68;100.00
28310;BME280;15571;50.974;13.936;2023-04-30T07:48:22;100792.13;;;10.72;100.00
28310;BME280;15571;50.974;13.936;2023-04-30T07:51:26;100794.75;;;10.73;100.00
28310;BME280;15571;50.974;13.936;2023-04-30T07:54:43;100801.72;;;10.78;100.00
28310;BME280;15571;50.974;13.936;2023-04-30T07:57:54;100810.47;;;10.77;100.00
28310;BME280;15571;50.974;13.936;2023-04-30T08:01:03;100800.00;;;10.77;100.00
28310;BME280;15571;50.974;13.936;2023-04-30T08:04:06;100801.75;;;10.81;100.00
28310;BME280;15571;50.974;13.936;2023-04-30T08:07:10;100793.91;;;10.82;100.00
28310;BME280;15571;50.974;13.936;2023-04-30T08:10:18;100803.47;;;10.83;100.00
28310;BME280;15571;50.974;13.936;2023-04-30T08:13:30;100797.41;;;10.86;100.00
28310;BME280;15571;50.974;13.936;2023-04-30T08:16:36;100788.69;;;10.92;100.00
28310;BME280;15571;50.974;13.936;2023-04-30T08:19:45;100799.16;;;10.93;100.00
28310;BME280;15571;50.974;13.936;2023-04-30T08:22:47;100808.78;;;11.00;100.00
28310;BME280;15571;50.974;13.936;2023-04-30T08:25:50;100801.81;;;11.05;100.00
28310;BME280;15571;50.974;13.936;2023-04-30T08:29:00;100806.19;;;11.08;100.00
28310;BME280;15571;50.974;13.936;2023-04-30T08:32:03;100813.16;;;11.04;100.00
28310;BME280;15571;50.974;13.936;2023-04-30T08:35:10;100821.91;;;11.07;100.00
28310;BME280;15571;50.974;13.936;2023-04-30T08:38:14;100805.28;;;11.08;100.00
28310;BME280;15571;50.974;13.936;2023-04-30T08:41:19;100807.91;;;11.06;100.00
28310;BME280;15571;50.974;13.936;2023-04-30T08:44:28;100810.53;;;11.04;100.00
28310;BME280;15571;50.974;13.936;2023-04-30T08:47:34;100807.91;;;11.08;100.00
28310;BME280;15571;50.974;13.936;2023-04-30T08:50:38;100805.28;;;11.12;100.00
28310;BME280;15571;50.974;13.936;2023-04-30T08:53:54;100808.81;;;11.19;100.00
28310;BME280;15571;50.974;13.936;2023-04-30T08:57:04;100803.59;;;11.20;100.00
28310;BME280;15571;50.974;13.936;2023-04-30T09:00:11;100814.94;;;11.26;100.00
28310;BME280;15571;50.974;13.936;2023-04-30T09:03:18;100811.44;;;11.31;100.00
28310;BME280;15571;50.974;13.936;2023-04-30T09:06:29;100820.19;;;11.38;100.00
28310;BME280;15571;50.974;13.936;2023-04-30T09:09:36;100821.06;;;11.45;100.00
28310;BME280;15571;50.974;13.936;2023-04-30T09:12:41;100824.56;;;11.45;100.00
28310;BME280;15571;50.974;13.936;2023-04-30T09:15:47;100828.94;;;11.46;100.00
28310;BME280;15571;50.974;13.936;2023-04-30T09:18:53;100822.81;;;11.52;100.00
28310;BME280;15571;50.974;13.936;2023-04-30T09:22:11;100821.94;;;11.56;100.00
28310;BME280;15571;50.974;13.936;2023-04-30T09:25:22;100823.69;;;11.60;100.00
28310;BME280;15571;50.974;13.936;2023-04-30T09:28:53;100826.31;;;11.63;100.00
28310;BME280;15571;50.974;13.936;2023-04-30T09:32:07;100819.34;;;11.65;100.00
28310;BME280;15571;50.974;13.936;2023-04-30T09:35:28;100817.56;;;11.67;100.00
28310;BME280;15571;50.974;13.936;2023-04-30T09:38:38;100821.94;;;11.68;100.00
28310;BME280;15571;50.974;13.936;2023-04-30T09:41:44;100819.31;;;11.75;100.00
28310;BME280;15571;50.974;13.936;2023-04-30T09:44:52;100814.09;;;11.75;100.00
28310;BME280;15571;50.974;13.936;2023-04-30T09:51:45;100814.06;;;11.78;100.00
28310;BME280;15571;50.974;13.936;2023-04-30T09:54:59;100807.97;;;11.73;100.00
28310;BME280;15571;50.974;13.936;2023-04-30T09:58:09;100802.69;;;11.77;100.00
28310;BME280;15571;50.974;13.936;2023-04-30T10:01:22;100800.06;;;11.82;100.00
28310;BME280;15571;50.974;13.936;2023-04-30T10:04:34;100787.84;;;11.84;100.00
28310;BME280;15571;50.974;13.936;2023-04-30T10:07:46;100792.22;;;11.80;100.00
28310;BME280;15571;50.974;13.936;2023-04-30T10:10:53;100783.47;;;11.88;100.00
28310;BME280;15571;50.974;13.936;2023-04-30T10:14:02;100792.19;;;11.88;100.00
28310;BME280;15571;50.974;13.936;2023-04-30T10:17:14;100792.19;;;11.96;100.00
28310;BME280;15571;50.974;13.936;2023-04-30T10:20:19;100782.56;;;11.99;100.00
28310;BME280;15571;50.974;13.936;2023-04-30T10:23:27;100778.22;;;12.05;100.00
28310;BME280;15571;50.974;13.936;2023-04-30T10:26:30;100779.94;;;12.06;100.00
28310;BME280;15571;50.974;13.936;2023-04-30T10:29:40;100775.59;;;12.05;100.00
28310;BME280;15571;50.974;13.936;2023-04-30T10:32:47;100781.69;;;12.07;100.00
28310;BME280;15571;50.974;13.936;2023-04-30T10:35:56;100770.31;;;12.08;100.00
28310;BME280;15571;50.974;13.936;2023-04-30T10:39:01;100762.41;;;12.12;100.00
28310;BME280;15571;50.974;13.936;2023-04-30T10:42:08;100761.53;;;12.15;100.00
28310;BME280;15571;50.974;13.936;2023-04-30T10:45:17;100758.03;;;12.19;100.00
28310;BME280;15571;50.974;13.936;2023-04-30T10:48:22;100762.38;;;12.22;100.00
28310;BME280;15571;50.974;13.936;2023-04-30T10:54:57;100755.38;;;12.27;100.00
28310;BME280;15571;50.974;13.936;2023-04-30T10:58:05;100768.50;;;12.28;100.00
28310;BME280;15571;50.974;13.936;2023-04-30T11:01:29;100763.25;;;12.32;100.00
28310;BME280;15571;50.974;13.936;2023-04-30T11:04:41;100760.59;;;12.33;100.00
28310;BME280;15571;50.974;13.936;2023-04-30T11:08:04;100756.22;;;12.32;100.00
28310;BME280;15571;50.974;13.936;2023-04-30T11:11:16;100760.63;;;12.32;100.00
28310;BME280;15571;50.974;13.936;2023-04-30T11:14:20;100754.47;;;12.34;100.00
28310;BME280;15571;50.974;13.936;2023-04-30T11:17:24;100762.34;;;12.37;100.00
28310;BME280;15571;50.974;13.936;2023-04-30T11:20:30;100758.84;;;12.35;100.00
28310;BME280;15571;50.974;13.936;2023-04-30T11:23:47;100751.81;;;12.39;100.00
28310;BME280;15571;50.974;13.936;2023-04-30T11:27:03;100740.44;;;12.40;100.00
28310;BME280;15571;50.974;13.936;2023-04-30T11:30:10;100743.94;;;12.39;100.00
28310;BME280;15571;50.974;13.936;2023-04-30T11:33:17;100753.56;;;12.41;100.00
28310;BME280;15571;50.974;13.936;2023-04-30T11:36:20;100750.91;;;12.46;100.00
28310;BME280;15571;50.974;13.936;2023-04-30T11:39:26;100743.91;;;12.48;100.00
28310;BME280;15571;50.974;13.936;2023-04-30T11:42:32;100744.78;;;12.50;100.00
28310;BME280;15571;50.974;13.936;2023-04-30T11:45:35;100755.25;;;12.52;100.00
28310;BME280;15571;50.974;13.936;2023-04-30T11:48:40;100751.78;;;12.51;100.00
28310;BME280;15571;50.974;13.936;2023-04-30T11:51:57;100741.22;;;12.54;100.00
28310;BME280;15571;50.974;13.936;2023-04-30T11:55:03;100739.47;;;12.56;100.00
28310;BME280;15571;50.974;13.936;2023-04-30T11:58:09;100736.84;;;12.56;100.00
28310;BME280;15571;50.974;13.936;2023-04-30T12:01:11;100740.34;;;12.55;100.00
28310;BME280;15571;50.974;13.936;2023-04-30T12:04:22;100735.94;;;12.59;100.00
28310;BME280;15571;50.974;13.936;2023-04-30T12:07:25;100731.59;;;12.59;100.00
28310;BME280;15571;50.974;13.936;2023-04-30T12:10:27;100733.34;;;12.64;100.00
28310;BME280;15571;50.974;13.936;2023-04-30T12:13:33;100723.66;;;12.66;100.00
28310;BME280;15571;50.974;13.936;2023-04-30T12:16:40;100732.41;;;12.65;100.00
28310;BME280;15571;50.974;13.936;2023-04-30T12:19:45;100713.19;;;12.64;100.00
28310;BME280;15571;50.974;13.936;2023-04-30T12:22:51;100735.06;;;12.65;100.00
28310;BME280;15571;50.974;13.936;2023-04-30T12:25:58;100722.78;;;12.70;100.00
28310;BME280;15571;50.974;13.936;2023-04-30T12:29:09;100714.03;;;12.71;100.00
28310;BME280;15571;50.974;13.936;2023-04-30T12:32:16;100713.97;;;12.74;100.00
28310;BME280;15571;50.974;13.936;2023-04-30T12:35:23;100714.84;;;12.77;100.00
28310;BME280;15571;50.974;13.936;2023-04-30T12:38:27;100714.81;;;12.82;100.00
28310;BME280;15571;50.974;13.936;2023-04-30T12:41:30;100709.53;;;12.85;100.00
28310;BME280;15571;50.974;13.936;2023-04-30T12:44:44;100713.00;;;12.89;100.00
28310;BME280;15571;50.974;13.936;2023-04-30T12:47:51;100706.88;;;12.90;100.00
28310;BME280;15571;50.974;13.936;2023-04-30T12:50:57;100714.72;;;12.95;100.00
28310;BME280;15571;50.974;13.936;2023-04-30T12:54:06;100707.69;;;12.98;100.00
28310;BME280;15571;50.974;13.936;2023-04-30T12:57:14;100694.53;;;13.01;100.00
28310;BME280;15571;50.974;13.936;2023-04-30T13:00:22;100690.09;;;13.05;100.00
28310;BME280;15571;50.974;13.936;2023-04-30T13:03:28;100687.47;;;13.05;100.00
28310;BME280;15571;50.974;13.936;2023-04-30T13:06:39;100682.22;;;13.08;100.00
28310;BME280;15571;50.974;13.936;2023-04-30T13:09:47;100684.81;;;13.11;100.00
28310;BME280;15571;50.974;13.936;2023-04-30T13:12:55;100682.13;;;13.17;100.00
28310;BME280;15571;50.974;13.936;2023-04-30T13:16:01;100675.97;;;13.21;100.00
28310;BME280;15571;50.974;13.936;2023-04-30T13:19:08;100673.31;;;13.26;100.00
28310;BME280;15571;50.974;13.936;2023-04-30T13:22:12;100664.47;;;13.30;100.00
28310;BME280;15571;50.974;13.936;2023-04-30T13:25:15;100678.50;;;13.31;100.00
28310;BME280;15571;50.974;13.936;2023-04-30T13:28:17;100671.50;;;13.30;100.00
28310;BME280;15571;50.974;13.936;2023-04-30T13:31:22;100672.38;;;13.32;100.00
28310;BME280;15571;50.974;13.936;2023-04-30T13:34:27;100655.69;;;13.33;100.00
28310;BME280;15571;50.974;13.936;2023-04-30T13:37:35;100650.41;;;13.36;100.00
28310;BME280;15571;50.974;13.936;2023-04-30T13:40:44;100652.19;;;13.35;100.00
28310;BME280;15571;50.974;13.936;2023-04-30T13:43:50;100643.38;;;13.38;100.00
28310;BME280;15571;50.974;13.936;2023-04-30T13:46:54;100644.22;;;13.45;100.00
28310;BME280;15571;50.974;13.936;2023-04-30T13:50:01;100638.91;;;13.49;99.07
28310;BME280;15571;50.974;13.936;2023-04-30T13:53:10;100639.78;;;13.51;98.58
28310;BME280;15571;50.974;13.936;2023-04-30T13:56:12;100644.97;;;13.54;98.45
28310;BME280;15571;50.974;13.936;2023-04-30T13:59:16;100640.59;;;13.55;91.25
28310;BME280;15571;50.974;13.936;2023-04-30T14:02:20;100636.19;;;13.56;91.57
28310;BME280;15571;50.974;13.936;2023-04-30T14:05:32;100628.25;;;13.60;93.56
28310;BME280;15571;50.974;13.936;2023-04-30T14:08:45;100634.47;;;13.54;91.12
28310;BME280;15571;50.974;13.936;2023-04-30T23:16:35;100595.25;;;9.18;100.00
28310;BME280;15571;50.974;13.936;2023-04-30T23:19:40;100590.00;;;9.15;100.00
28310;BME280;15571;50.974;13.936;2023-04-30T23:22:44;100595.19;;;9.12;100.00
28310;BME280;15571;50.974;13.936;2023-04-30T23:25:52;100596.94;;;9.10;100.00
28310;BME280;15571;50.974;13.936;2023-04-30T23:29:03;100593.41;;;9.07;100.00
28310;BME280;15571;50.974;13.936;2023-04-30T23:32:08;100585.56;;;9.03;100.00
28310;BME280;15571;50.974;13.936;2023-04-30T23:35:17;100585.56;;;8.99;100.00
28310;BME280;15571;50.974;13.936;2023-04-30T23:38:20;100577.66;;;8.93;100.00
28310;BME280;15571;50.974;13.936;2023-04-30T23:41:23;100570.69;;;8.88;100.00
28310;BME280;15571;50.974;13.936;2023-04-30T23:44:26;100577.59;;;8.83;100.00
28310;BME280;15571;50.974;13.936;2023-04-30T23:47:33;100571.47;;;8.78;100.00
28310;BME280;15571;50.974;13.936;2023-04-30T23:50:39;100574.06;;;8.75;100.00
28310;BME280;15571;50.974;13.936;2023-04-30T23:53:43;100573.16;;;8.71;100.00
28310;BME280;15571;50.974;13.936;2023-04-30T23:56:49;100574.88;;;8.68;100.00
28310;BME280;15571;50.974;13.936;2023-04-30T23:59:56;100570.47;;;8.64;100.00
